sensor_id;sensor_type;location;lat;lon;timestamp;P1;durP1;ratioP1;P2;durP2;ratioP2
22754;SDS011;11544;42.020;23.094;2022-12-05T00:02:08;8.45;;;4.65;;
22754;SDS011;11544;42.020;23.094;2022-12-05T00:04:36;7.70;;;4.70;;
22754;SDS011;11544;42.020;23.094;2022-12-05T00:07:03;8.85;;;5.63;;
22754;SDS011;11544;42.020;23.094;2022-12-05T00:09:30;9.10;;;4.90;;
22754;SDS011;11544;42.020;23.094;2022-12-05T00:11:57;8.35;;;5.18;;
22754;SDS011;11544;42.020;23.094;2022-12-05T00:14:24;8.73;;;5.20;;
22754;SDS011;11544;42.020;23.094;2022-12-05T00:16:52;7.80;;;5.28;;
22754;SDS011;11544;42.020;23.094;2022-12-05T00:19:19;8.93;;;5.38;;
22754;SDS011;11544;42.020;23.094;2022-12-05T00:21:46;10.20;;;6.00;;
22754;SDS011;11544;42.020;23.094;2022-12-05T00:24:14;9.60;;;5.25;;
22754;SDS011;11544;42.020;23.094;2022-12-05T00:26:41;9.95;;;5.85;;
22754;SDS011;11544;42.020;23.094;2022-12-05T00:29:09;9.77;;;5.43;;
22754;SDS011;11544;42.020;23.094;2022-12-05T00:31:36;8.05;;;5.50;;
22754;SDS011;11544;42.020;23.094;2022-12-05T00:34:03;8.85;;;5.13;;
22754;SDS011;11544;42.020;23.094;2022-12-05T00:36:30;9.32;;;5.97;;
22754;SDS011;11544;42.020;23.094;2022-12-05T00:38:59;9.30;;;5.05;;
22754;SDS011;11544;42.020;23.094;2022-12-05T00:41:28;10.93;;;6.18;;
22754;SDS011;11544;42.020;23.094;2022-12-05T00:43:56;10.35;;;5.90;;
22754;SDS011;11544;42.020;23.094;2022-12-05T00:46:25;9.05;;;5.30;;
22754;SDS011;11544;42.020;23.094;2022-12-05T00:48:55;10.35;;;5.80;;
22754;SDS011;11544;42.020;23.094;2022-12-05T00:51:24;10.63;;;5.70;;
22754;SDS011;11544;42.020;23.094;2022-12-05T00:53:54;9.18;;;5.80;;
22754;SDS011;11544;42.020;23.094;2022-12-05T00:56:26;9.52;;;5.35;;
22754;SDS011;11544;42.020;23.094;2022-12-05T00:58:55;10.50;;;5.43;;
22754;SDS011;11544;42.020;23.094;2022-12-05T01:01:24;9.43;;;5.70;;
22754;SDS011;11544;42.020;23.094;2022-12-05T01:04:06;8.95;;;5.30;;
22754;SDS011;11544;42.020;23.094;2022-12-05T01:06:36;9.25;;;5.38;;
22754;SDS011;11544;42.020;23.094;2022-12-05T01:09:04;10.05;;;5.78;;
22754;SDS011;11544;42.020;23.094;2022-12-05T01:11:31;10.45;;;5.43;;
22754;SDS011;11544;42.020;23.094;2022-12-05T01:14:06;8.98;;;5.00;;
22754;SDS011;11544;42.020;23.094;2022-12-05T01:16:35;9.77;;;5.18;;
22754;SDS011;11544;42.020;23.094;2022-12-05T01:19:25;8.25;;;5.25;;
22754;SDS011;11544;42.020;23.094;2022-12-05T01:21:53;8.10;;;5.32;;
22754;SDS011;11544;42.020;23.094;2022-12-05T01:24:21;8.18;;;5.05;;
22754;SDS011;11544;42.020;23.094;2022-12-05T01:26:49;7.35;;;4.78;;
22754;SDS011;11544;42.020;23.094;2022-12-05T01:29:17;8.18;;;4.88;;
22754;SDS011;11544;42.020;23.094;2022-12-05T01:31:46;8.30;;;5.20;;
22754;SDS011;11544;42.020;23.094;2022-12-05T01:34:14;7.68;;;5.07;;
22754;SDS011;11544;42.020;23.094;2022-12-05T01:36:43;8.57;;;4.70;;
22754;SDS011;11544;42.020;23.094;2022-12-05T01:39:11;8.88;;;5.53;;
22754;SDS011;11544;42.020;23.094;2022-12-05T01:41:42;7.72;;;4.68;;
22754;SDS011;11544;42.020;23.094;2022-12-05T01:46:42;7.43;;;4.90;;
22754;SDS011;11544;42.020;23.094;2022-12-05T01:49:18;8.77;;;5.05;;
22754;SDS011;11544;42.020;23.094;2022-12-05T01:51:54;8.65;;;5.07;;
22754;SDS011;11544;42.020;23.094;2022-12-05T01:54:25;8.40;;;5.10;;
22754;SDS011;11544;42.020;23.094;2022-12-05T01:56:53;8.88;;;4.93;;
22754;SDS011;11544;42.020;23.094;2022-12-05T01:59:26;9.73;;;5.10;;
22754;SDS011;11544;42.020;23.094;2022-12-05T02:01:59;10.27;;;5.60;;
22754;SDS011;11544;42.020;23.094;2022-12-05T02:04:27;11.43;;;6.07;;
22754;SDS011;11544;42.020;23.094;2022-12-05T02:06:54;10.15;;;6.15;;
22754;SDS011;11544;42.020;23.094;2022-12-05T02:09:28;10.75;;;6.25;;
22754;SDS011;11544;42.020;23.094;2022-12-05T02:42:17;10.90;;;7.15;;
22754;SDS011;11544;42.020;23.094;2022-12-05T02:44:53;9.40;;;5.75;;
22754;SDS011;11544;42.020;23.094;2022-12-05T02:47:26;11.13;;;5.95;;
22754;SDS011;11544;42.020;23.094;2022-12-05T02:49:58;13.93;;;6.07;;
22754;SDS011;11544;42.020;23.094;2022-12-05T02:52:28;13.48;;;6.97;;
22754;SDS011;11544;42.020;23.094;2022-12-05T02:54:58;11.77;;;5.93;;
22754;SDS011;11544;42.020;23.094;2022-12-05T02:57:28;13.88;;;6.32;;
22754;SDS011;11544;42.020;23.094;2022-12-05T02:59:55;9.50;;;5.28;;
22754;SDS011;11544;42.020;23.094;2022-12-05T03:02:27;9.23;;;5.35;;
22754;SDS011;11544;42.020;23.094;2022-12-05T03:05:01;7.97;;;4.63;;
22754;SDS011;11544;42.020;23.094;2022-12-05T03:07:40;9.40;;;5.05;;
22754;SDS011;11544;42.020;23.094;2022-12-05T03:10:12;9.10;;;5.13;;
22754;SDS011;11544;42.020;23.094;2022-12-05T03:12:43;10.02;;;5.35;;
22754;SDS011;11544;42.020;23.094;2022-12-05T03:15:17;9.05;;;5.30;;
22754;SDS011;11544;42.020;23.094;2022-12-05T03:17:56;12.18;;;5.50;;
22754;SDS011;11544;42.020;23.094;2022-12-05T03:20:58;11.57;;;6.07;;
22754;SDS011;11544;42.020;23.094;2022-12-05T03:23:37;8.23;;;4.90;;
22754;SDS011;11544;42.020;23.094;2022-12-05T03:28:50;11.88;;;5.70;;
22754;SDS011;11544;42.020;23.094;2022-12-05T03:31:32;8.15;;;4.72;;
22754;SDS011;11544;42.020;23.094;2022-12-05T03:34:06;7.93;;;4.78;;
22754;SDS011;11544;42.020;23.094;2022-12-05T03:36:37;7.95;;;5.10;;
22754;SDS011;11544;42.020;23.094;2022-12-05T03:39:09;10.05;;;5.07;;
22754;SDS011;11544;42.020;23.094;2022-12-05T03:41:51;9.75;;;5.97;;
22754;SDS011;11544;42.020;23.094;2022-12-05T03:44:27;11.73;;;6.45;;
22754;SDS011;11544;42.020;23.094;2022-12-05T03:49:58;9.65;;;6.05;;
22754;SDS011;11544;42.020;23.094;2022-12-05T03:52:42;13.02;;;5.95;;
22754;SDS011;11544;42.020;23.094;2022-12-05T03:55:34;12.98;;;5.97;;
22754;SDS011;11544;42.020;23.094;2022-12-05T03:58:06;12.10;;;5.97;;
22754;SDS011;11544;42.020;23.094;2022-12-05T04:00:39;10.10;;;6.22;;
22754;SDS011;11544;42.020;23.094;2022-12-05T04:03:25;10.07;;;6.65;;
22754;SDS011;11544;42.020;23.094;2022-12-05T04:06:16;11.15;;;6.10;;
22754;SDS011;11544;42.020;23.094;2022-12-05T04:08:54;8.98;;;5.38;;
22754;SDS011;11544;42.020;23.094;2022-12-05T04:11:27;10.75;;;6.38;;
22754;SDS011;11544;42.020;23.094;2022-12-05T04:14:04;10.70;;;6.75;;
22754;SDS011;11544;42.020;23.094;2022-12-05T04:16:37;13.68;;;6.68;;
22754;SDS011;11544;42.020;23.094;2022-12-05T04:22:24;10.20;;;6.38;;
22754;SDS011;11544;42.020;23.094;2022-12-05T04:24:56;12.02;;;7.75;;
22754;SDS011;11544;42.020;23.094;2022-12-05T04:27:54;12.07;;;7.50;;
22754;SDS011;11544;42.020;23.094;2022-12-05T04:30:32;11.38;;;6.82;;
22754;SDS011;11544;42.020;23.094;2022-12-05T04:33:14;11.90;;;7.10;;
22754;SDS011;11544;42.020;23.094;2022-12-05T04:35:49;10.77;;;6.40;;
22754;SDS011;11544;42.020;23.094;2022-12-05T04:40:59;12.40;;;6.72;;
22754;SDS011;11544;42.020;23.094;2022-12-05T04:43:33;11.45;;;6.50;;
22754;SDS011;11544;42.020;23.094;2022-12-05T04:46:03;15.40;;;8.30;;
22754;SDS011;11544;42.020;23.094;2022-12-05T04:48:34;12.77;;;7.10;;
22754;SDS011;11544;42.020;23.094;2022-12-05T04:51:05;13.00;;;7.30;;
22754;SDS011;11544;42.020;23.094;2022-12-05T04:53:35;10.82;;;7.22;;
22754;SDS011;11544;42.020;23.094;2022-12-05T04:56:02;14.55;;;6.70;;
22754;SDS011;11544;42.020;23.094;2022-12-05T04:58:31;12.77;;;6.72;;
22754;SDS011;11544;42.020;23.094;2022-12-05T05:01:06;12.43;;;6.32;;
22754;SDS011;11544;42.020;23.094;2022-12-05T05:04:16;10.27;;;5.68;;
22754;SDS011;11544;42.020;23.094;2022-12-05T05:07:18;9.68;;;6.05;;
22754;SDS011;11544;42.020;23.094;2022-12-05T05:18:23;12.02;;;7.28;;
22754;SDS011;11544;42.020;23.094;2022-12-05T05:20:52;10.63;;;5.70;;
22754;SDS011;11544;42.020;23.094;2022-12-05T05:23:19;10.65;;;5.63;;
22754;SDS011;11544;42.020;23.094;2022-12-05T05:25:52;12.23;;;7.10;;
22754;SDS011;11544;42.020;23.094;2022-12-05T05:28:22;10.93;;;6.45;;
22754;SDS011;11544;42.020;23.094;2022-12-05T05:30:49;13.60;;;6.80;;
22754;SDS011;11544;42.020;23.094;2022-12-05T05:33:16;12.43;;;6.55;;
22754;SDS011;11544;42.020;23.094;2022-12-05T05:35:44;12.38;;;7.28;;
22754;SDS011;11544;42.020;23.094;2022-12-05T05:38:10;14.73;;;7.60;;
22754;SDS011;11544;42.020;23.094;2022-12-05T05:40:37;16.17;;;8.30;;
22754;SDS011;11544;42.020;23.094;2022-12-05T05:43:04;16.60;;;9.05;;
22754;SDS011;11544;42.020;23.094;2022-12-05T05:45:31;20.73;;;8.82;;
22754;SDS011;11544;42.020;23.094;2022-12-05T05:47:58;17.05;;;9.52;;
22754;SDS011;11544;42.020;23.094;2022-12-05T05:50:25;16.65;;;8.70;;
22754;SDS011;11544;42.020;23.094;2022-12-05T05:52:52;18.75;;;9.90;;
22754;SDS011;11544;42.020;23.094;2022-12-05T05:55:19;16.00;;;10.82;;
22754;SDS011;11544;42.020;23.094;2022-12-05T05:57:46;20.80;;;10.85;;
22754;SDS011;11544;42.020;23.094;2022-12-05T06:00:13;22.73;;;11.88;;
22754;SDS011;11544;42.020;23.094;2022-12-05T06:02:40;18.60;;;10.80;;
22754;SDS011;11544;42.020;23.094;2022-12-05T06:05:08;16.85;;;10.13;;
22754;SDS011;11544;42.020;23.094;2022-12-05T06:07:35;21.15;;;10.38;;
22754;SDS011;11544;42.020;23.094;2022-12-05T06:10:02;22.38;;;11.27;;
22754;SDS011;11544;42.020;23.094;2022-12-05T06:12:35;23.50;;;11.98;;
22754;SDS011;11544;42.020;23.094;2022-12-05T06:15:02;22.08;;;13.43;;
22754;SDS011;11544;42.020;23.094;2022-12-05T06:17:53;24.27;;;12.50;;
22754;SDS011;11544;42.020;23.094;2022-12-05T06:20:21;22.52;;;12.07;;
22754;SDS011;11544;42.020;23.094;2022-12-05T06:22:48;17.83;;;11.15;;
22754;SDS011;11544;42.020;23.094;2022-12-05T06:25:15;15.15;;;9.48;;
22754;SDS011;11544;42.020;23.094;2022-12-05T06:27:42;22.88;;;11.52;;
22754;SDS011;11544;42.020;23.094;2022-12-05T06:30:09;18.35;;;11.05;;
22754;SDS011;11544;42.020;23.094;2022-12-05T06:32:36;21.33;;;11.05;;
22754;SDS011;11544;42.020;23.094;2022-12-05T06:35:03;29.90;;;12.65;;
22754;SDS011;11544;42.020;23.094;2022-12-05T06:37:44;21.92;;;11.52;;
22754;SDS011;11544;42.020;23.094;2022-12-05T06:40:11;20.48;;;9.65;;
22754;SDS011;11544;42.020;23.094;2022-12-05T06:42:38;20.90;;;9.70;;
22754;SDS011;11544;42.020;23.094;2022-12-05T06:45:05;20.38;;;8.30;;
22754;SDS011;11544;42.020;23.094;2022-12-05T06:47:32;17.40;;;8.38;;
22754;SDS011;11544;42.020;23.094;2022-12-05T06:49:59;14.00;;;7.85;;
22754;SDS011;11544;42.020;23.094;2022-12-05T06:52:29;16.85;;;8.75;;
22754;SDS011;11544;42.020;23.094;2022-12-05T06:54:56;17.27;;;9.85;;
22754;SDS011;11544;42.020;23.094;2022-12-05T06:57:26;16.17;;;9.20;;
22754;SDS011;11544;42.020;23.094;2022-12-05T06:59:54;17.73;;;8.57;;
22754;SDS011;11544;42.020;23.094;2022-12-05T07:02:48;12.75;;;7.70;;
22754;SDS011;11544;42.020;23.094;2022-12-05T07:05:17;18.92;;;9.25;;
22754;SDS011;11544;42.020;23.094;2022-12-05T07:07:44;19.42;;;10.18;;
22754;SDS011;11544;42.020;23.094;2022-12-05T07:10:11;18.52;;;9.98;;
22754;SDS011;11544;42.020;23.094;2022-12-05T07:12:38;16.92;;;8.13;;
22754;SDS011;11544;42.020;23.094;2022-12-05T07:15:05;13.95;;;7.43;;
22754;SDS011;11544;42.020;23.094;2022-12-05T07:17:36;12.43;;;7.15;;
22754;SDS011;11544;42.020;23.094;2022-12-05T07:20:05;13.80;;;7.07;;
22754;SDS011;11544;42.020;23.094;2022-12-05T07:22:35;13.55;;;7.50;;
22754;SDS011;11544;42.020;23.094;2022-12-05T07:25:03;13.85;;;6.97;;
22754;SDS011;11544;42.020;23.094;2022-12-05T07:27:30;11.52;;;5.55;;
22754;SDS011;11544;42.020;23.094;2022-12-05T07:29:57;12.30;;;6.28;;
22754;SDS011;11544;42.020;23.094;2022-12-05T07:32:24;12.90;;;7.15;;
22754;SDS011;11544;42.020;23.094;2022-12-05T07:34:51;13.88;;;7.53;;
22754;SDS011;11544;42.020;23.094;2022-12-05T07:37:21;15.35;;;6.80;;
22754;SDS011;11544;42.020;23.094;2022-12-05T07:39:48;12.63;;;7.18;;
22754;SDS011;11544;42.020;23.094;2022-12-05T07:42:16;11.15;;;6.60;;
22754;SDS011;11544;42.020;23.094;2022-12-05T07:44:43;12.68;;;6.68;;
22754;SDS011;11544;42.020;23.094;2022-12-05T07:47:10;10.93;;;6.68;;
22754;SDS011;11544;42.020;23.094;2022-12-05T07:49:38;9.52;;;6.07;;
22754;SDS011;11544;42.020;23.094;2022-12-05T07:52:04;11.48;;;6.13;;
22754;SDS011;11544;42.020;23.094;2022-12-05T07:54:32;10.18;;;6.22;;
22754;SDS011;11544;42.020;23.094;2022-12-05T07:56:59;12.77;;;6.47;;
22754;SDS011;11544;42.020;23.094;2022-12-05T07:59:26;9.55;;;6.20;;
22754;SDS011;11544;42.020;23.094;2022-12-05T08:01:53;9.90;;;6.03;;
22754;SDS011;11544;42.020;23.094;2022-12-05T08:04:20;12.63;;;6.30;;
22754;SDS011;11544;42.020;23.094;2022-12-05T08:06:46;11.95;;;6.63;;
22754;SDS011;11544;42.020;23.094;2022-12-05T08:09:13;13.65;;;6.97;;
22754;SDS011;11544;42.020;23.094;2022-12-05T08:11:41;17.10;;;6.88;;
22754;SDS011;11544;42.020;23.094;2022-12-05T08:14:10;15.25;;;7.97;;
22754;SDS011;11544;42.020;23.094;2022-12-05T08:16:37;19.52;;;9.23;;
22754;SDS011;11544;42.020;23.094;2022-12-05T08:19:05;19.48;;;10.00;;
22754;SDS011;11544;42.020;23.094;2022-12-05T08:21:38;25.42;;;9.73;;
22754;SDS011;11544;42.020;23.094;2022-12-05T08:24:06;18.77;;;10.38;;
22754;SDS011;11544;42.020;23.094;2022-12-05T08:26:34;18.42;;;10.23;;
22754;SDS011;11544;42.020;23.094;2022-12-05T08:29:05;21.40;;;9.80;;
22754;SDS011;11544;42.020;23.094;2022-12-05T08:31:39;19.40;;;9.90;;
22754;SDS011;11544;42.020;23.094;2022-12-05T08:34:08;18.63;;;9.43;;
22754;SDS011;11544;42.020;23.094;2022-12-05T08:36:37;21.42;;;14.40;;
22754;SDS011;11544;42.020;23.094;2022-12-05T08:39:05;20.02;;;11.57;;
22754;SDS011;11544;42.020;23.094;2022-12-05T08:41:34;14.32;;;8.45;;
22754;SDS011;11544;42.020;23.094;2022-12-05T08:44:03;16.80;;;8.50;;
22754;SDS011;11544;42.020;23.094;2022-12-05T08:46:31;15.43;;;9.70;;
22754;SDS011;11544;42.020;23.094;2022-12-05T08:49:00;21.65;;;12.38;;
22754;SDS011;11544;42.020;23.094;2022-12-05T08:51:28;14.27;;;8.43;;
22754;SDS011;11544;42.020;23.094;2022-12-05T08:53:55;14.98;;;8.38;;
22754;SDS011;11544;42.020;23.094;2022-12-05T08:56:22;15.63;;;7.60;;
22754;SDS011;11544;42.020;23.094;2022-12-05T08:58:52;16.15;;;8.73;;
22754;SDS011;11544;42.020;23.094;2022-12-05T09:01:28;15.70;;;9.15;;
22754;SDS011;11544;42.020;23.094;2022-12-05T09:03:59;16.42;;;9.50;;
22754;SDS011;11544;42.020;23.094;2022-12-05T09:06:27;14.30;;;9.02;;
22754;SDS011;11544;42.020;23.094;2022-12-05T09:08:55;18.58;;;10.45;;
22754;SDS011;11544;42.020;23.094;2022-12-05T09:11:26;18.23;;;10.88;;
22754;SDS011;11544;42.020;23.094;2022-12-05T09:13:56;19.80;;;11.57;;
22754;SDS011;11544;42.020;23.094;2022-12-05T09:16:24;23.55;;;13.07;;
22754;SDS011;11544;42.020;23.094;2022-12-05T09:19:02;18.88;;;11.55;;
22754;SDS011;11544;42.020;23.094;2022-12-05T09:21:29;24.50;;;12.98;;
22754;SDS011;11544;42.020;23.094;2022-12-05T09:23:57;37.85;;;18.60;;
22754;SDS011;11544;42.020;23.094;2022-12-05T09:26:26;27.60;;;12.60;;
22754;SDS011;11544;42.020;23.094;2022-12-05T09:28:53;25.63;;;14.00;;
22754;SDS011;11544;42.020;23.094;2022-12-05T09:31:22;26.00;;;13.45;;
22754;SDS011;11544;42.020;23.094;2022-12-05T09:33:52;25.90;;;13.43;;
22754;SDS011;11544;42.020;23.094;2022-12-05T09:36:24;29.77;;;16.65;;
22754;SDS011;11544;42.020;23.094;2022-12-05T09:38:52;27.73;;;16.63;;
22754;SDS011;11544;42.020;23.094;2022-12-05T09:50:28;21.15;;;13.10;;
22754;SDS011;11544;42.020;23.094;2022-12-05T09:58:59;20.55;;;11.90;;
22754;SDS011;11544;42.020;23.094;2022-12-05T10:07:40;19.08;;;10.77;;
22754;SDS011;11544;42.020;23.094;2022-12-05T10:10:37;21.00;;;10.55;;
22754;SDS011;11544;42.020;23.094;2022-12-05T10:16:17;18.27;;;10.15;;
22754;SDS011;11544;42.020;23.094;2022-12-05T10:18:53;19.55;;;11.32;;
22754;SDS011;11544;42.020;23.094;2022-12-05T10:24:00;18.15;;;10.68;;
22754;SDS011;11544;42.020;23.094;2022-12-05T10:26:33;20.08;;;12.15;;
22754;SDS011;11544;42.020;23.094;2022-12-05T10:31:44;21.85;;;13.43;;
22754;SDS011;11544;42.020;23.094;2022-12-05T10:34:17;23.92;;;13.13;;
22754;SDS011;11544;42.020;23.094;2022-12-05T10:37:19;25.40;;;14.10;;
22754;SDS011;11544;42.020;23.094;2022-12-05T10:39:46;28.45;;;17.27;;
22754;SDS011;11544;42.020;23.094;2022-12-05T10:42:15;25.60;;;15.50;;
22754;SDS011;11544;42.020;23.094;2022-12-05T10:44:43;23.98;;;14.80;;
22754;SDS011;11544;42.020;23.094;2022-12-05T10:47:10;27.08;;;15.15;;
22754;SDS011;11544;42.020;23.094;2022-12-05T10:49:38;26.40;;;16.33;;
22754;SDS011;11544;42.020;23.094;2022-12-05T10:52:05;26.17;;;14.98;;
22754;SDS011;11544;42.020;23.094;2022-12-05T10:54:34;24.75;;;15.23;;
22754;SDS011;11544;42.020;23.094;2022-12-05T10:57:23;29.17;;;15.88;;
22754;SDS011;11544;42.020;23.094;2022-12-05T10:59:51;27.45;;;15.70;;
22754;SDS011;11544;42.020;23.094;2022-12-05T11:02:23;28.83;;;16.27;;
22754;SDS011;11544;42.020;23.094;2022-12-05T11:04:55;26.05;;;15.95;;
22754;SDS011;11544;42.020;23.094;2022-12-05T11:10:17;30.13;;;17.38;;
22754;SDS011;11544;42.020;23.094;2022-12-05T11:12:53;31.77;;;17.35;;
22754;SDS011;11544;42.020;23.094;2022-12-05T11:15:23;29.48;;;17.42;;
22754;SDS011;11544;42.020;23.094;2022-12-05T11:17:53;40.15;;;21.63;;
22754;SDS011;11544;42.020;23.094;2022-12-05T11:22:49;36.55;;;19.88;;
22754;SDS011;11544;42.020;23.094;2022-12-05T11:27:55;33.50;;;19.45;;
22754;SDS011;11544;42.020;23.094;2022-12-05T11:30:27;33.05;;;17.30;;
22754;SDS011;11544;42.020;23.094;2022-12-05T11:36:03;33.63;;;19.10;;
22754;SDS011;11544;42.020;23.094;2022-12-05T11:38:37;35.67;;;18.35;;
22754;SDS011;11544;42.020;23.094;2022-12-05T12:00:20;29.00;;;15.10;;
22754;SDS011;11544;42.020;23.094;2022-12-05T12:03:02;26.73;;;15.30;;
22754;SDS011;11544;42.020;23.094;2022-12-05T12:16:52;21.50;;;12.00;;
22754;SDS011;11544;42.020;23.094;2022-12-05T12:19:42;27.50;;;14.35;;
22754;SDS011;11544;42.020;23.094;2022-12-05T12:22:29;21.33;;;12.35;;
22754;SDS011;11544;42.020;23.094;2022-12-05T12:33:26;19.50;;;11.32;;
22754;SDS011;11544;42.020;23.094;2022-12-05T12:36:17;22.27;;;12.50;;
22754;SDS011;11544;42.020;23.094;2022-12-05T12:39:25;21.90;;;12.15;;
22754;SDS011;11544;42.020;23.094;2022-12-05T12:44:44;18.25;;;11.93;;
22754;SDS011;11544;42.020;23.094;2022-12-05T12:50:29;20.65;;;11.82;;
22754;SDS011;11544;42.020;23.094;2022-12-05T12:55:55;22.38;;;11.70;;
22754;SDS011;11544;42.020;23.094;2022-12-05T13:01:20;17.98;;;10.77;;
22754;SDS011;11544;42.020;23.094;2022-12-05T13:04:11;21.67;;;12.50;;
22754;SDS011;11544;42.020;23.094;2022-12-05T13:09:35;18.48;;;11.20;;
22754;SDS011;11544;42.020;23.094;2022-12-05T13:12:07;16.77;;;9.20;;
22754;SDS011;11544;42.020;23.094;2022-12-05T13:14:39;17.48;;;9.32;;
22754;SDS011;11544;42.020;23.094;2022-12-05T13:17:19;19.08;;;10.30;;
22754;SDS011;11544;42.020;23.094;2022-12-05T13:19:49;18.92;;;9.90;;
22754;SDS011;11544;42.020;23.094;2022-12-05T13:22:18;15.05;;;9.48;;
22754;SDS011;11544;42.020;23.094;2022-12-05T13:24:51;17.55;;;10.73;;
22754;SDS011;11544;42.020;23.094;2022-12-05T13:27:25;21.20;;;12.63;;
22754;SDS011;11544;42.020;23.094;2022-12-05T13:32:26;14.88;;;8.63;;
22754;SDS011;11544;42.020;23.094;2022-12-05T13:35:07;15.70;;;8.73;;
22754;SDS011;11544;42.020;23.094;2022-12-05T13:37:44;15.90;;;8.45;;
22754;SDS011;11544;42.020;23.094;2022-12-05T13:40:35;15.57;;;8.95;;
22754;SDS011;11544;42.020;23.094;2022-12-05T13:43:27;16.83;;;9.27;;
22754;SDS011;11544;42.020;23.094;2022-12-05T13:46:05;16.35;;;8.95;;
22754;SDS011;11544;42.020;23.094;2022-12-05T13:48:36;19.10;;;10.85;;
22754;SDS011;11544;42.020;23.094;2022-12-05T13:51:10;15.32;;;9.05;;
22754;SDS011;11544;42.020;23.094;2022-12-05T13:53:46;14.48;;;9.50;;
22754;SDS011;11544;42.020;23.094;2022-12-05T13:56:24;16.10;;;9.52;;
22754;SDS011;11544;42.020;23.094;2022-12-05T13:58:56;17.55;;;9.27;;
22754;SDS011;11544;42.020;23.094;2022-12-05T14:04:17;16.88;;;10.43;;
22754;SDS011;11544;42.020;23.094;2022-12-05T14:14:57;14.15;;;8.63;;
22754;SDS011;11544;42.020;23.094;2022-12-05T14:17:42;13.80;;;9.07;;
22754;SDS011;11544;42.020;23.094;2022-12-05T14:36:45;22.60;;;11.90;;
22754;SDS011;11544;42.020;23.094;2022-12-05T14:39:21;20.55;;;11.88;;
22754;SDS011;11544;42.020;23.094;2022-12-05T14:41:58;22.85;;;12.25;;
22754;SDS011;11544;42.020;23.094;2022-12-05T14:44:29;20.52;;;12.20;;
22754;SDS011;11544;42.020;23.094;2022-12-05T14:47:00;26.73;;;14.80;;
22754;SDS011;11544;42.020;23.094;2022-12-05T14:52:10;27.00;;;15.55;;
22754;SDS011;11544;42.020;23.094;2022-12-05T14:54:37;36.72;;;18.63;;
22754;SDS011;11544;42.020;23.094;2022-12-05T14:57:10;27.02;;;15.77;;
22754;SDS011;11544;42.020;23.094;2022-12-05T15:02:15;30.98;;;16.83;;
22754;SDS011;11544;42.020;23.094;2022-12-05T15:07:58;44.95;;;22.30;;
22754;SDS011;11544;42.020;23.094;2022-12-05T15:10:35;40.35;;;20.48;;
22754;SDS011;11544;42.020;23.094;2022-12-05T15:13:06;38.25;;;19.63;;
22754;SDS011;11544;42.020;23.094;2022-12-05T15:15:41;34.03;;;18.35;;
22754;SDS011;11544;42.020;23.094;2022-12-05T15:18:26;33.72;;;18.00;;
22754;SDS011;11544;42.020;23.094;2022-12-05T15:23:37;34.22;;;17.60;;
22754;SDS011;11544;42.020;23.094;2022-12-05T15:26:15;29.52;;;16.30;;
22754;SDS011;11544;42.020;23.094;2022-12-05T15:31:50;34.95;;;17.65;;
22754;SDS011;11544;42.020;23.094;2022-12-05T15:39:48;33.83;;;16.17;;
22754;SDS011;11544;42.020;23.094;2022-12-05T15:42:15;34.83;;;17.40;;
22754;SDS011;11544;42.020;23.094;2022-12-05T15:44:54;34.67;;;17.65;;
22754;SDS011;11544;42.020;23.094;2022-12-05T15:47:42;31.27;;;16.38;;
22754;SDS011;11544;42.020;23.094;2022-12-05T15:52:58;38.35;;;19.80;;
22754;SDS011;11544;42.020;23.094;2022-12-05T15:55:32;38.42;;;20.50;;
22754;SDS011;11544;42.020;23.094;2022-12-05T16:06:18;33.92;;;18.58;;
22754;SDS011;11544;42.020;23.094;2022-12-05T16:08:50;39.80;;;21.60;;
22754;SDS011;11544;42.020;23.094;2022-12-05T16:11:17;38.50;;;19.40;;
22754;SDS011;11544;42.020;23.094;2022-12-05T16:13:47;38.25;;;19.33;;
22754;SDS011;11544;42.020;23.094;2022-12-05T16:16:18;33.15;;;19.05;;
22754;SDS011;11544;42.020;23.094;2022-12-05T16:18:48;40.22;;;18.98;;
22754;SDS011;11544;42.020;23.094;2022-12-05T16:21:33;36.42;;;19.13;;
22754;SDS011;11544;42.020;23.094;2022-12-05T16:24:12;37.85;;;18.13;;
22754;SDS011;11544;42.020;23.094;2022-12-05T16:29:29;32.20;;;17.30;;
22754;SDS011;11544;42.020;23.094;2022-12-05T16:32:00;33.90;;;17.42;;
22754;SDS011;11544;42.020;23.094;2022-12-05T16:34:31;38.55;;;16.95;;
22754;SDS011;11544;42.020;23.094;2022-12-05T16:36:59;29.15;;;16.33;;
22754;SDS011;11544;42.020;23.094;2022-12-05T16:39:26;33.15;;;18.55;;
22754;SDS011;11544;42.020;23.094;2022-12-05T16:41:54;33.15;;;16.58;;
22754;SDS011;11544;42.020;23.094;2022-12-05T16:53:31;36.95;;;19.38;;
22754;SDS011;11544;42.020;23.094;2022-12-05T16:56:10;36.40;;;18.17;;
22754;SDS011;11544;42.020;23.094;2022-12-05T16:58:40;40.13;;;20.60;;
22754;SDS011;11544;42.020;23.094;2022-12-05T17:01:18;25.75;;;14.90;;
22754;SDS011;11544;42.020;23.094;2022-12-05T17:03:47;34.25;;;17.23;;
22754;SDS011;11544;42.020;23.094;2022-12-05T17:06:14;30.02;;;14.90;;
22754;SDS011;11544;42.020;23.094;2022-12-05T17:08:43;33.88;;;16.70;;
22754;SDS011;11544;42.020;23.094;2022-12-05T17:11:14;35.20;;;16.60;;
22754;SDS011;11544;42.020;23.094;2022-12-05T17:13:46;31.65;;;15.05;;
22754;SDS011;11544;42.020;23.094;2022-12-05T17:16:16;34.03;;;16.25;;
22754;SDS011;11544;42.020;23.094;2022-12-05T17:18:44;28.95;;;16.00;;
22754;SDS011;11544;42.020;23.094;2022-12-05T17:21:24;36.88;;;17.65;;
22754;SDS011;11544;42.020;23.094;2022-12-05T17:23:56;33.13;;;16.30;;
22754;SDS011;11544;42.020;23.094;2022-12-05T17:26:23;28.05;;;15.20;;
22754;SDS011;11544;42.020;23.094;2022-12-05T17:29:08;30.50;;;15.57;;
22754;SDS011;11544;42.020;23.094;2022-12-05T17:31:35;32.88;;;17.48;;
22754;SDS011;11544;42.020;23.094;2022-12-05T17:34:05;29.27;;;15.95;;
22754;SDS011;11544;42.020;23.094;2022-12-05T17:36:39;24.85;;;13.60;;
22754;SDS011;11544;42.020;23.094;2022-12-05T17:39:06;31.35;;;14.57;;
22754;SDS011;11544;42.020;23.094;2022-12-05T17:41:34;31.75;;;16.00;;
22754;SDS011;11544;42.020;23.094;2022-12-05T17:44:03;26.25;;;13.45;;
22754;SDS011;11544;42.020;23.094;2022-12-05T17:46:30;19.85;;;11.45;;
22754;SDS011;11544;42.020;23.094;2022-12-05T17:49:00;21.40;;;11.80;;
22754;SDS011;11544;42.020;23.094;2022-12-05T17:51:27;19.65;;;10.63;;
22754;SDS011;11544;42.020;23.094;2022-12-05T17:53:54;20.35;;;10.93;;
22754;SDS011;11544;42.020;23.094;2022-12-05T17:56:21;20.58;;;11.40;;
22754;SDS011;11544;42.020;23.094;2022-12-05T17:58:48;31.45;;;14.75;;
22754;SDS011;11544;42.020;23.094;2022-12-05T18:01:17;31.15;;;14.40;;
22754;SDS011;11544;42.020;23.094;2022-12-05T18:03:46;28.00;;;15.10;;
22754;SDS011;11544;42.020;23.094;2022-12-05T18:06:13;23.38;;;13.32;;
22754;SDS011;11544;42.020;23.094;2022-12-05T18:08:40;32.22;;;14.95;;
22754;SDS011;11544;42.020;23.094;2022-12-05T18:11:09;26.02;;;13.60;;
22754;SDS011;11544;42.020;23.094;2022-12-05T18:13:38;21.13;;;11.30;;
22754;SDS011;11544;42.020;23.094;2022-12-05T18:16:06;15.15;;;9.15;;
22754;SDS011;11544;42.020;23.094;2022-12-05T18:18:33;13.70;;;7.57;;
22754;SDS011;11544;42.020;23.094;2022-12-05T18:21:04;15.07;;;7.90;;
22754;SDS011;11544;42.020;23.094;2022-12-05T18:23:35;13.75;;;7.82;;
22754;SDS011;11544;42.020;23.094;2022-12-05T18:26:03;12.73;;;7.82;;